createdAt,value
2019-02-03T00:01:31.876Z,1.60
2019-02-03T00:05:40.050Z,1.60
2019-02-03T00:09:48.224Z,1.60
2019-02-03T00:13:56.397Z,1.60
2019-02-03T00:18:04.615Z,1.60
2019-02-03T00:22:12.883Z,1.60
2019-02-03T00:26:21.055Z,1.70
2019-02-03T00:30:29.229Z,1.70
2019-02-03T00:34:37.387Z,1.80
2019-02-03T00:38:45.561Z,1.80
2019-02-03T00:42:53.765Z,1.80
2019-02-03T00:47:01.942Z,1.70
2019-02-03T00:51:10.141Z,1.70
2019-02-03T00:55:18.358Z,1.70
2019-02-03T00:59:26.541Z,1.70
2019-02-03T01:03:34.814Z,1.70
2019-02-03T01:07:42.992Z,1.80
2019-02-03T01:11:51.154Z,1.70
2019-02-03T01:15:59.304Z,1.70
2019-02-03T01:20:09.557Z,1.80
2019-02-03T01:24:17.900Z,1.80
2019-02-03T01:28:26.047Z,1.80
2019-02-03T01:32:34.207Z,1.70
2019-02-03T01:36:42.383Z,1.70
2019-02-03T01:40:50.560Z,1.70
2019-02-03T01:44:58.811Z,1.70
2019-02-03T01:49:06.976Z,1.70
2019-02-03T01:53:15.158Z,1.70
2019-02-03T01:57:23.330Z,1.80
2019-02-03T02:01:31.504Z,1.80
2019-02-03T02:05:39.700Z,1.80
2019-02-03T02:09:47.872Z,1.80
2019-02-03T02:13:56.040Z,1.80
2019-02-03T02:18:04.219Z,1.80
2019-02-03T02:22:12.423Z,1.70
2019-02-03T02:26:20.648Z,1.80
2019-02-03T02:30:28.876Z,1.80
2019-02-03T02:34:37.064Z,1.80
2019-02-03T02:38:45.261Z,1.80
2019-02-03T02:42:53.461Z,1.70
2019-02-03T02:47:01.656Z,1.70
2019-02-03T02:51:09.956Z,1.80
2019-02-03T02:55:18.119Z,1.80
2019-02-03T02:59:26.292Z,1.80
2019-02-03T03:03:34.467Z,1.80
2019-02-03T03:07:42.636Z,1.70
2019-02-03T03:11:50.832Z,1.70
2019-02-03T03:15:59.002Z,1.70
2019-02-03T03:20:08.362Z,1.70
2019-02-03T03:24:16.527Z,1.70
2019-02-03T03:28:24.755Z,1.80
2019-02-03T03:32:33.025Z,1.70
2019-02-03T03:36:41.190Z,1.60
2019-02-03T03:40:49.367Z,1.60
2019-02-03T03:44:57.532Z,1.50
2019-02-03T03:49:05.719Z,1.40
2019-02-03T03:53:13.954Z,1.40
2019-02-03T03:57:22.185Z,1.40
2019-02-03T04:01:30.378Z,1.30
2019-02-03T04:05:38.534Z,1.30
2019-02-03T04:09:46.772Z,1.30
2019-02-03T04:13:54.973Z,1.30
2019-02-03T04:18:03.225Z,1.30
2019-02-03T04:22:11.383Z,1.40
2019-02-03T04:26:19.549Z,1.40
2019-02-03T04:30:27.730Z,1.50
2019-02-03T04:34:35.943Z,1.50
2019-02-03T04:38:57.198Z,1.50
2019-02-03T04:42:52.357Z,1.50
2019-02-03T04:47:00.535Z,1.60
2019-02-03T04:51:08.720Z,1.60
2019-02-03T04:55:17.942Z,1.60
2019-02-03T04:59:26.207Z,1.70
2019-02-03T05:03:34.399Z,1.70
2019-02-03T05:07:42.594Z,1.80
2019-02-03T05:11:50.785Z,1.80
2019-02-03T05:15:58.998Z,1.80
2019-02-03T05:20:08.898Z,1.80
2019-02-03T05:24:17.068Z,1.80
2019-02-03T05:28:25.287Z,1.80
2019-02-03T05:32:33.486Z,1.80
2019-02-03T05:36:41.698Z,1.70
2019-02-03T05:40:49.863Z,1.70
2019-02-03T05:44:58.042Z,1.70
2019-02-03T05:49:06.196Z,1.70
2019-02-03T05:53:14.376Z,1.70
2019-02-03T05:57:22.636Z,1.70
2019-02-03T06:01:30.823Z,1.70
2019-02-03T06:05:38.991Z,1.80
2019-02-03T06:09:47.171Z,1.80
2019-02-03T06:13:55.368Z,1.80
2019-02-03T06:18:03.602Z,1.80
2019-02-03T06:22:11.783Z,1.80
2019-02-03T06:26:19.959Z,1.80
2019-02-03T06:30:38.359Z,1.90
2019-02-03T06:34:46.540Z,1.80
2019-02-03T06:38:55.081Z,1.80
2019-02-03T06:43:03.271Z,1.80
2019-02-03T06:47:18.099Z,1.80
2019-02-03T06:51:26.283Z,1.80
2019-02-03T06:55:34.461Z,1.80
2019-02-03T06:59:50.139Z,1.80
2019-02-03T07:03:50.883Z,1.70
2019-02-03T07:07:59.133Z,1.60
2019-02-03T07:12:07.398Z,1.60
2019-02-03T07:16:15.619Z,1.60
2019-02-03T07:20:23.899Z,1.60
2019-02-03T07:24:32.149Z,1.60
2019-02-03T07:28:40.415Z,1.70
2019-02-03T07:32:48.672Z,1.70
2019-02-03T07:36:56.860Z,1.70
2019-02-03T07:41:05.171Z,1.80
2019-02-03T07:45:13.343Z,1.80
2019-02-03T07:49:21.578Z,1.90
2019-02-03T07:53:29.883Z,1.90
2019-02-03T07:57:38.131Z,2.00
2019-02-03T08:01:46.344Z,2.30
2019-02-03T08:05:54.516Z,2.50
2019-02-03T08:10:02.709Z,2.40
2019-02-03T08:14:10.943Z,2.30
2019-02-03T08:18:19.175Z,2.30
2019-02-03T08:22:27.363Z,2.40
2019-02-03T08:26:35.547Z,2.40
2019-02-03T08:30:43.759Z,2.30
2019-02-03T08:34:51.947Z,2.30
2019-02-03T08:39:00.147Z,2.30
2019-02-03T08:43:08.327Z,2.20
2019-02-03T08:47:16.515Z,2.20
2019-02-03T08:51:24.700Z,2.30
2019-02-03T08:55:32.891Z,2.20
2019-02-03T08:59:41.089Z,2.20
2019-02-03T09:03:49.280Z,2.40
2019-02-03T09:07:57.452Z,2.40
2019-02-03T09:12:05.638Z,2.60
2019-02-03T09:16:13.844Z,2.80
2019-02-03T09:20:24.221Z,3.00
2019-02-03T09:24:32.403Z,3.30
2019-02-03T09:28:40.579Z,3.40
2019-02-03T09:32:48.876Z,3.50
2019-02-03T09:36:57.131Z,3.50
2019-02-03T09:41:05.411Z,3.70
2019-02-03T09:45:14.193Z,3.90
2019-02-03T09:49:22.441Z,4.10
2019-02-03T09:53:30.636Z,4.20
2019-02-03T09:57:41.376Z,4.30
2019-02-03T10:01:49.554Z,4.30
2019-02-03T10:05:57.749Z,4.50
2019-02-03T10:10:09.380Z,4.60
2019-02-03T10:14:17.541Z,4.80
2019-02-03T10:18:25.735Z,4.80
2019-02-03T10:22:33.979Z,4.80
2019-02-03T10:26:42.222Z,4.60
2019-02-03T10:30:50.429Z,4.20
2019-02-03T10:34:58.706Z,4.40
2019-02-03T10:39:09.260Z,4.60
2019-02-03T10:43:17.448Z,4.90
2019-02-03T10:47:25.615Z,4.80
2019-02-03T10:51:33.827Z,4.70
2019-02-03T10:55:42.027Z,5.00
2019-02-03T10:59:50.228Z,5.40
2019-02-03T11:03:58.747Z,5.40
2019-02-03T11:08:08.468Z,5.20
2019-02-03T11:12:16.725Z,5.20
2019-02-03T11:16:24.948Z,5.40
2019-02-03T11:20:33.169Z,5.60
2019-02-03T11:24:41.384Z,5.50
2019-02-03T11:28:49.580Z,5.20
2019-02-03T11:33:05.847Z,5.40
2019-02-03T11:37:06.624Z,5.60
2019-02-03T11:41:14.816Z,5.90
2019-02-03T11:45:26.401Z,5.90
2019-02-03T11:49:34.636Z,6.10
2019-02-03T11:53:42.890Z,6.10
2019-02-03T11:57:51.056Z,6.30
2019-02-03T12:01:59.220Z,6.40
2019-02-03T12:06:07.448Z,6.50
2019-02-03T12:10:18.424Z,6.30
2019-02-03T12:14:26.805Z,6.00
2019-02-03T12:18:34.984Z,5.80
2019-02-03T12:22:43.234Z,5.50
2019-02-03T12:26:51.349Z,5.60
2019-02-03T12:30:59.473Z,6.00
2019-02-03T12:35:10.029Z,6.60
2019-02-03T12:39:18.140Z,6.30
2019-02-03T12:43:26.290Z,5.90
2019-02-03T12:47:34.419Z,5.90
2019-02-03T12:51:42.597Z,6.00
2019-02-03T12:55:50.714Z,6.20
2019-02-03T12:59:58.929Z,6.40
2019-02-03T13:04:07.077Z,6.70
2019-02-03T13:08:15.198Z,6.30
2019-02-03T13:12:24.844Z,6.30
2019-02-03T13:16:31.505Z,6.10
2019-02-03T13:20:42.417Z,5.70
2019-02-03T13:24:47.782Z,5.70
2019-02-03T13:28:55.921Z,5.70
2019-02-03T13:33:04.044Z,6.30
2019-02-03T13:37:12.178Z,6.50
2019-02-03T13:41:20.353Z,6.40
2019-02-03T13:45:28.493Z,6.30
2019-02-03T13:49:36.629Z,6.00
2019-02-03T13:53:44.760Z,5.70
2019-02-03T13:57:52.893Z,5.60
2019-02-03T14:02:01.188Z,5.50
2019-02-03T14:06:09.317Z,5.50
2019-02-03T14:10:21.375Z,5.40
2019-02-03T14:14:29.520Z,5.20
2019-02-03T14:18:37.688Z,4.90
2019-02-03T14:22:45.821Z,4.80
2019-02-03T14:26:53.938Z,4.90
2019-02-03T14:31:02.053Z,4.90
2019-02-03T14:35:10.174Z,4.80
2019-02-03T14:39:18.302Z,4.80
2019-02-03T14:43:26.481Z,4.60
2019-02-03T14:47:34.609Z,4.60
2019-02-03T14:51:42.752Z,4.90
2019-02-03T14:55:51.900Z,5.00
2019-02-03T14:59:59.007Z,4.80
2019-02-03T15:04:07.161Z,4.70
2019-02-03T15:08:15.306Z,4.70
2019-02-03T15:12:23.412Z,4.60
2019-02-03T15:16:31.531Z,4.40
2019-02-03T15:20:39.702Z,4.40
2019-02-03T15:24:47.821Z,4.30
2019-02-03T15:28:55.982Z,4.20
2019-02-03T15:33:04.154Z,4.10
2019-02-03T15:37:12.282Z,4.10
2019-02-03T15:41:20.414Z,4.10
2019-02-03T15:45:28.592Z,4.10
2019-02-03T15:49:36.709Z,4.00
2019-02-03T15:53:44.859Z,3.90
2019-02-03T15:57:53.121Z,3.90
2019-02-03T16:02:01.271Z,3.80
2019-02-03T16:06:09.411Z,3.70
2019-02-03T16:10:19.494Z,3.70
2019-02-03T16:14:27.653Z,3.60
2019-02-03T16:18:35.801Z,3.50
2019-02-03T16:22:43.929Z,3.40
2019-02-03T16:26:52.062Z,3.40
2019-02-03T16:31:00.633Z,3.30
2019-02-03T16:35:10.022Z,3.30
2019-02-03T16:39:18.161Z,3.20
2019-02-03T16:43:26.313Z,3.10
2019-02-03T16:47:34.480Z,3.10
2019-02-03T16:51:42.594Z,3.00
2019-02-03T16:55:50.726Z,3.00
2019-02-03T16:59:58.881Z,2.80
2019-02-03T17:04:07.010Z,2.80
2019-02-03T17:08:15.173Z,2.60
2019-02-03T17:12:23.329Z,2.60
2019-02-03T17:16:31.520Z,2.50
2019-02-03T17:20:39.663Z,2.40
2019-02-03T17:24:47.813Z,2.30
2019-02-03T17:28:55.936Z,2.20
2019-02-03T17:33:04.085Z,2.20
2019-02-03T17:37:12.260Z,2.10
2019-02-03T17:41:20.389Z,2.10
2019-02-03T17:45:28.548Z,2.10
2019-02-03T17:49:36.689Z,2.00
2019-02-03T17:53:44.813Z,2.00
2019-02-03T17:57:52.965Z,1.90
2019-02-03T18:02:01.106Z,1.80
2019-02-03T18:06:09.274Z,1.70
2019-02-03T18:10:18.099Z,1.60
2019-02-03T18:14:26.225Z,1.60
2019-02-03T18:18:34.345Z,1.40
2019-02-03T18:22:42.492Z,1.30
2019-02-03T18:26:50.692Z,1.20
2019-02-03T18:30:58.838Z,1.10
2019-02-03T18:35:07.491Z,1.00
2019-02-03T18:39:15.686Z,0.80
2019-02-03T18:43:23.889Z,0.70
2019-02-03T18:47:32.133Z,0.70
2019-02-03T18:51:40.338Z,0.60
2019-02-03T18:55:48.570Z,0.50
2019-02-03T18:59:56.725Z,0.40
2019-02-03T19:04:04.934Z,0.30
2019-02-03T19:08:13.116Z,0.20
2019-02-03T19:12:21.452Z,0.20
2019-02-03T19:16:29.594Z,0.10
2019-02-03T19:20:38.922Z,0.00
2019-02-03T19:24:47.138Z,0.00
2019-02-03T19:28:56.293Z,-0.10
2019-02-03T19:33:04.617Z,-0.20
2019-02-03T19:37:12.765Z,-0.20
2019-02-03T19:41:20.921Z,-0.30
2019-02-03T19:45:29.486Z,-0.40
2019-02-03T19:49:46.223Z,-0.40
2019-02-03T19:53:45.778Z,-0.50
2019-02-03T19:57:53.935Z,-0.50
2019-02-03T20:02:02.091Z,-0.60
2019-02-03T20:06:10.277Z,-0.60
2019-02-03T20:10:18.688Z,-0.70
2019-02-03T20:14:26.830Z,-0.70
2019-02-03T20:18:34.965Z,-0.80
2019-02-03T20:22:43.147Z,-0.80
2019-02-03T20:26:51.296Z,-0.90
2019-02-03T20:30:59.528Z,-1.00
2019-02-03T20:35:09.482Z,-1.00
2019-02-03T20:39:17.633Z,-1.10
2019-02-03T20:43:25.803Z,-1.10
2019-02-03T20:47:33.982Z,-1.10
2019-02-03T20:51:42.129Z,-1.20
2019-02-03T20:55:50.255Z,-1.20
2019-02-03T20:59:58.394Z,-1.30
2019-02-03T21:04:06.523Z,-1.30
2019-02-03T21:08:14.690Z,-1.30
2019-02-03T21:12:22.843Z,-1.40
2019-02-03T21:16:31.081Z,-1.40
2019-02-03T21:20:43.794Z,-1.40
2019-02-03T21:24:51.933Z,-1.50
2019-02-03T21:29:00.066Z,-1.50
2019-02-03T21:33:10.362Z,-1.60
2019-02-03T21:37:18.505Z,-1.50
2019-02-03T21:41:26.657Z,-1.50
2019-02-03T21:45:44.225Z,-1.50
2019-02-03T21:49:43.034Z,-1.40
2019-02-03T21:53:51.194Z,-1.30
2019-02-03T21:57:59.333Z,-1.20
2019-02-03T22:02:07.488Z,-1.20
2019-02-03T22:06:15.613Z,-1.20
2019-02-03T22:10:26.579Z,-1.30
2019-02-03T22:14:34.714Z,-1.30
2019-02-03T22:18:42.880Z,-1.40
2019-02-03T22:22:51.153Z,-1.40
2019-02-03T22:26:59.209Z,-1.30
2019-02-03T22:31:08.429Z,-1.20
2019-02-03T22:35:16.558Z,-1.10
2019-02-03T22:39:24.709Z,-1.00
2019-02-03T22:43:33.036Z,-0.90
2019-02-03T22:47:41.185Z,-0.80
2019-02-03T22:51:49.338Z,-0.70
2019-02-03T22:55:57.482Z,-0.60
2019-02-03T23:00:13.305Z,-0.50
2019-02-03T23:04:24.152Z,-0.40
2019-02-03T23:08:32.349Z,-0.40
2019-02-03T23:12:40.533Z,-0.30
2019-02-03T23:16:48.711Z,-0.20
2019-02-03T23:20:56.856Z,-0.20
2019-02-03T23:25:05.426Z,-0.10
2019-02-03T23:29:13.570Z,0.00
2019-02-03T23:33:21.760Z,0.00
2019-02-03T23:37:29.934Z,0.10
2019-02-03T23:41:38.112Z,0.20
2019-02-03T23:45:46.237Z,0.20
2019-02-03T23:49:54.396Z,0.30
2019-02-03T23:54:02.498Z,0.40
2019-02-03T23:58:10.681Z,0.40
